Meath Park, Canada
Current Conditions -  °F | °C
As of 10:00 AM on Friday 19 Dec 2014 (Local Time) from CYPA Reporting Station
Haze Haze  
Wind Chill: 18°   Ceiling: 200
Heat Index: 18°   Visibility: 0.75mi
Dew Point: 16°   Wind: 2mph
Humidity: 93%   Direction: NA
Pressure: 29.94"   Gusts: NA
Location:  53.45°N, 105.37°W
Report Text: CYPA 191600Z VRB02KT 3/4SM R08/3000V5000FT/U BR OVC002 M08/M09 A2994 RMK FG2ST6 SLP171
Loading
Personal Weather Stations






























Interactive Weather Map New forecast layout! Learn more

10-Day Weather Forecast

Advertisements
Track Severe Weather on mobile